Time;durP1;ratioP1;P1;durP2;ratioP2;P2;SDS_P1;SDS_P2;PMS_P1;PMS_P2;Temp;Humidity;BMP_temperature;BMP_pressure;BME280_temperature;BME280_humidity;BME280_pressure;Samples;Min_cycle;Max_cycle;Signal;HPM_P1;HPM_P2
2022/03/31 00:01:03;;;;;;;82.45;25.63;;;;;;;5.02;99.61;90802.41;5006277;28;20103;-91
2022/03/31 00:03:34;;;;;;;75.82;26.73;;;;;;;5.20;99.56;90829.25;5033920;28;20041;-91
2022/03/31 00:06:23;;;;;;;88.05;27.13;;;;;;;5.12;99.53;90807.38;5001584;28;20056;-91
2022/03/31 00:08:56;;;;;;;71.80;26.77;;;;;;;5.01;99.63;90800.88;4999650;28;20042;-91
2022/03/31 00:11:36;;;;;;;84.68;28.13;;;;;;;4.85;100.00;90768.56;5000609;28;20063;-90
2022/03/31 00:14:10;;;;;;;82.30;29.17;;;;;;;4.92;100.00;90781.88;5016284;28;20066;-91
2022/03/31 00:16:51;;;;;;;93.70;28.23;;;;;;;5.02;100.00;90789.44;5029063;28;20080;-92
2022/03/31 00:19:40;;;;;;;83.32;28.48;;;;;;;4.96;99.91;90783.59;4981097;28;20042;-91
2022/03/31 00:22:15;;;;;;;69.68;24.10;;;;;;;4.81;99.49;90752.81;4979674;28;20065;-91
2022/03/31 00:28:13;;;;;;;;;;;;;;;;;;;;;
2022/03/31 00:31:29;;;;;;;75.25;25.45;;;;;;;4.79;100.00;90744.56;5015726;28;20041;-91
2022/03/31 00:34:36;;;;;;;;;;;;;;;;;;;;;
2022/03/31 00:37:32;;;;;;;78.75;26.63;;;;;;;4.77;100.00;90729.31;5015184;28;20042;-91
2022/03/31 00:40:27;;;;;;;;;;;;;;;;;;;;;
2022/03/31 00:46:28;;;;;;;78.28;25.25;;;;;;;4.75;100.00;90705.50;5011478;28;20056;-90
2022/03/31 00:49:34;;;;;;;73.57;25.08;;;;;;;4.75;99.54;90702.91;4999642;28;20038;-91
2022/03/31 00:52:06;;;;;;;76.00;26.40;;;;;;;4.96;99.28;90725.78;5013884;28;20137;-90
2022/03/31 00:54:50;;;;;;;81.03;26.60;;;;;;;4.75;99.21;90695.16;4999317;28;20044;-91
2022/03/31 00:57:40;;;;;;;77.38;25.88;;;;;;;4.80;98.83;90694.25;5015157;28;20509;-90
2022/03/31 01:00:26;;;;;;;;;;;;;;;;;;;;;
2022/03/31 01:03:05;;;;;;;77.75;25.67;;;;;;;5.07;98.58;90715.97;4983041;28;20496;-90
2022/03/31 01:05:43;;;;;;;71.97;25.10;;;;;;;4.83;98.80;90679.94;4982900;28;20053;-91
2022/03/31 01:08:39;;;;;;;78.82;26.95;;;;;;;4.97;99.76;90702.16;5014370;28;20090;-91
2022/03/31 01:11:19;;;;;;;;;;;;;;;;;;;;;
2022/03/31 01:14:16;;;;;;;;;;;;;;;;;;;;;
2022/03/31 01:17:04;;;;;;;78.15;26.95;;;;;;;4.76;99.72;90665.56;5028354;28;20063;-90
2022/03/31 01:22:38;;;;;;;78.97;27.42;;;;;;;4.91;99.35;90679.22;5005958;28;20069;-91
2022/03/31 01:25:26;;;;;;;78.43;29.35;;;;;;;4.79;99.54;90670.16;4997014;28;20053;-90
2022/03/31 01:28:08;;;;;;;77.38;26.02;;;;;;;4.87;99.46;90680.91;4978581;28;20145;-90
2022/03/31 01:31:13;;;;;;;80.88;27.88;;;;;;;4.81;99.56;90675.03;4980479;28;20040;-91
2022/03/31 01:33:59;;;;;;;74.75;28.17;;;;;;;4.59;100.00;90642.88;4995490;28;20391;-91
2022/03/31 01:36:54;;;;;;;79.90;27.83;;;;;;;4.59;99.94;90644.69;4999310;28;20128;-90
2022/03/31 01:39:52;;;;;;;90.47;27.42;;;;;;;4.87;99.79;90675.72;5000232;28;20057;-91
2022/03/31 01:42:34;;;;;;;79.03;28.20;;;;;;;4.61;99.56;90639.22;5006715;28;20037;-91
2022/03/31 01:45:35;;;;;;;88.90;29.75;;;;;;;4.71;99.75;90660.50;5018856;28;20041;-90
2022/03/31 01:48:35;;;;;;;90.22;29.63;;;;;;;4.58;99.36;90638.00;5033289;28;20037;-90
2022/03/31 01:51:12;;;;;;;90.55;27.70;;;;;;;4.89;98.92;90684.72;5033229;28;20043;-91
2022/03/31 01:54:06;;;;;;;88.03;30.00;;;;;;;4.57;98.89;90644.22;5019415;28;20045;-90
2022/03/31 01:56:55;;;;;;;90.90;31.98;;;;;;;4.65;99.00;90648.72;4971816;28;20136;-90
2022/03/31 02:00:17;;;;;;;108.50;32.40;;;;;;;4.97;99.24;90693.59;5032658;28;20045;-90
2022/03/31 02:02:57;;;;;;;108.00;33.88;;;;;;;4.51;99.01;90627.28;4998119;28;20045;-91
2022/03/31 02:05:30;;;;;;;95.15;32.35;;;;;;;4.53;99.16;90622.56;4975887;28;20138;-92
2022/03/31 02:08:02;;;;;;;97.18;32.90;;;;;;;4.58;99.34;90630.97;4962294;28;20034;-90
2022/03/31 02:10:36;;;;;;;96.63;33.30;;;;;;;4.50;99.65;90618.75;4961530;28;20046;-90
2022/03/31 02:13:37;;;;;;;;;;;;;;;;;;;;;
2022/03/31 02:16:08;;;;;;;103.15;32.97;;;;;;;4.73;100.00;90649.84;4981285;28;20712;-90
2022/03/31 02:18:46;;;;;;;94.72;32.75;;;;;;;4.84;100.00;90671.88;4977587;28;20034;-90
2022/03/31 02:21:25;;;;;;;118.88;34.25;;;;;;;4.72;100.00;90643.88;4982865;28;20044;-89
2022/03/31 02:24:16;;;;;;;100.32;32.78;;;;;;;4.54;100.00;90613.72;4959363;28;20045;-90
2022/03/31 02:27:12;;;;;;;;;;;;;;;;;;;;;
2022/03/31 02:29:48;;;;;;;89.68;31.45;;;;;;;4.80;100.00;90647.59;4974575;28;20058;-90
2022/03/31 02:32:54;;;;;;;98.03;31.20;;;;;;;4.56;100.00;90620.13;4957867;28;20046;-90
2022/03/31 02:35:39;;;;;;;102.57;31.35;;;;;;;4.58;100.00;90619.84;4993378;28;20043;-91
2022/03/31 02:38:15;;;;;;;99.43;30.88;;;;;;;4.71;100.00;90644.94;4979403;28;20072;-90
2022/03/31 02:40:43;;;;;;;100.47;31.05;;;;;;;4.84;100.00;90652.94;4997458;28;20479;-91
2022/03/31 02:43:42;;;;;;;99.32;30.75;;;;;;;4.87;100.00;90660.16;4980912;28;20042;-90
2022/03/31 02:46:33;;;;;;;;;;;;;;;;;;;;;
2022/03/31 02:49:17;;;;;;;;;;;;;;;;;;;;;
2022/03/31 02:57:46;;;;;;;;;;;;;;;;;;;;;
2022/03/31 03:00:32;;;;;;;93.47;31.42;;;;;;;4.66;100.00;90598.41;4997194;28;20042;-90
2022/03/31 03:03:33;;;;;;;;;;;;;;;;;;;;;
2022/03/31 03:06:25;;;;;;;96.53;31.70;;;;;;;4.90;100.00;90623.25;4979192;28;20039;-90
2022/03/31 03:08:59;;;;;;;121.05;34.20;;;;;;;4.77;100.00;90604.91;4964008;28;20049;-90
2022/03/31 03:14:40;;;;;;;91.68;31.55;;;;;;;4.68;100.00;90585.16;5000458;28;20046;-91
2022/03/31 03:17:37;;;;;;;92.22;31.55;;;;;;;4.64;100.00;90571.25;4957661;28;20066;-91
2022/03/31 03:20:12;;;;;;;101.75;30.80;;;;;;;4.71;100.00;90580.16;4977673;28;20160;-90
2022/03/31 03:23:00;;;;;;;93.20;32.03;;;;;;;4.76;100.00;90582.59;4961961;28;20034;-90
2022/03/31 03:25:35;;;;;;;91.72;33.35;;;;;;;4.78;100.00;90585.66;4977859;28;20084;-89
2022/03/31 03:28:37;;;;;;;92.32;33.05;;;;;;;4.76;100.00;90585.19;4962277;28;20039;-89
2022/03/31 03:31:41;;;;;;;105.53;34.08;;;;;;;5.08;100.00;90632.66;4969732;28;20440;-89
2022/03/31 03:34:59;;;;;;;;;;;;;;;;;;;;;
2022/03/31 03:37:51;;;;;;;108.20;35.03;;;;;;;4.69;100.00;90565.97;4977849;28;20038;-91
2022/03/31 03:43:42;;;;;;;100.00;32.38;;;;;;;4.65;100.00;90555.41;4988430;28;20054;-90
2022/03/31 03:46:23;;;;;;;120.43;35.78;;;;;;;4.65;100.00;90549.47;4980903;28;20055;-90
2022/03/31 03:49:23;;;;;;;102.63;34.10;;;;;;;4.66;99.89;90550.97;4966774;28;20085;-91
2022/03/31 03:52:22;;;;;;;112.00;33.53;;;;;;;5.08;99.05;90611.91;4965000;28;20053;-90
2022/03/31 03:54:52;;;;;;;107.00;33.90;;;;;;;4.93;99.37;90581.16;4929050;28;20378;-90
2022/03/31 03:57:26;;;;;;;95.75;32.42;;;;;;;4.84;99.21;90559.63;4960349;28;20039;-91
2022/03/31 04:00:28;;;;;;;110.22;33.42;;;;;;;4.92;98.70;90571.88;4973833;28;20379;-91
2022/03/31 04:03:09;;;;;;;489.77;36.20;;;;;;;4.73;100.00;90539.16;5007193;28;20475;-89
2022/03/31 04:05:52;;;;;;;181.05;37.33;;;;;;;4.82;100.00;90556.56;5002164;28;20034;-90
2022/03/31 04:08:35;;;;;;;136.80;38.72;;;;;;;4.86;100.00;90576.41;5019945;28;20049;-90
2022/03/31 04:11:04;;;;;;;127.07;38.22;;;;;;;4.58;100.00;90535.09;4993581;28;20038;-90
2022/03/31 04:13:58;;;;;;;;;;;;;;;;;;;;;
2022/03/31 04:17:00;;;;;;;130.93;37.53;;;;;;;4.77;100.00;90578.19;4998938;28;20060;-90
2022/03/31 04:19:43;;;;;;;128.20;39.10;;;;;;;4.76;100.00;90572.25;5008337;28;20425;-90
2022/03/31 04:22:38;;;;;;;;;;;;;;;;;;;;;
2022/03/31 04:25:29;;;;;;;;;;;;;;;;;;;;;
2022/03/31 04:28:29;;;;;;;124.85;37.00;;;;;;;4.90;100.00;90587.72;4969721;28;20034;-89
2022/03/31 04:31:32;;;;;;;131.35;38.28;;;;;;;4.44;100.00;90520.69;5016098;28;20045;-90
2022/03/31 04:34:05;;;;;;;113.00;35.67;;;;;;;4.69;100.00;90551.16;4964572;28;20050;-90
2022/03/31 04:36:45;;;;;;;117.95;35.50;;;;;;;4.63;100.00;90547.16;4986399;28;20488;-90
2022/03/31 04:39:12;;;;;;;125.13;36.83;;;;;;;4.87;100.00;90574.59;4983234;28;20042;-89
2022/03/31 04:41:38;;;;;;;116.18;35.88;;;;;;;4.92;100.00;90574.47;4980635;28;20450;-86
2022/03/31 04:44:06;;;;;;;106.38;33.33;;;;;;;4.92;100.00;90569.28;4995981;28;20074;-86
2022/03/31 04:46:33;;;;;;;113.03;35.55;;;;;;;4.94;100.00;90562.72;4967277;28;20519;-87
2022/03/31 04:49:00;;;;;;;112.20;33.92;;;;;;;4.74;100.00;90537.31;4980362;28;20082;-87
2022/03/31 04:51:26;;;;;;;101.72;34.13;;;;;;;4.95;100.00;90558.28;5010861;28;20149;-87
2022/03/31 04:53:51;;;;;;;110.40;35.20;;;;;;;4.94;100.00;90559.38;4989821;28;20430;-87
2022/03/31 04:56:17;;;;;;;100.38;33.50;;;;;;;4.92;100.00;90544.09;4996448;28;20045;-87
2022/03/31 04:58:44;;;;;;;101.80;32.63;;;;;;;4.90;100.00;90537.69;5013851;28;20058;-87
2022/03/31 05:01:10;;;;;;;104.85;34.10;;;;;;;4.93;100.00;90552.63;4989246;28;20050;-89
2022/03/31 05:03:39;;;;;;;114.43;35.05;;;;;;;4.90;100.00;90537.69;4960800;28;20048;-86
2022/03/31 05:06:06;;;;;;;110.32;33.30;;;;;;;4.72;100.00;90524.63;4952119;28;20050;-86
2022/03/31 05:08:33;;;;;;;120.07;36.55;;;;;;;4.85;100.00;90545.59;4944335;28;20046;-87
2022/03/31 05:10:59;;;;;;;106.07;33.22;;;;;;;4.87;100.00;90546.06;4993574;28;20034;-86
2022/03/31 05:13:24;;;;;;;122.50;34.88;;;;;;;4.87;100.00;90544.25;4960428;28;20088;-86
2022/03/31 05:15:50;;;;;;;94.10;32.60;;;;;;;4.86;100.00;90545.28;4942252;28;20031;-87
2022/03/31 05:18:16;;;;;;;108.00;32.22;;;;;;;4.83;100.00;90540.72;4976623;28;20038;-86
2022/03/31 05:20:43;;;;;;;97.53;32.58;;;;;;;4.65;100.00;90519.13;4977139;28;20997;-86
2022/03/31 05:23:12;;;;;;;106.90;33.00;;;;;;;4.58;100.00;90506.59;4976618;28;20472;-85
2022/03/31 05:25:39;;;;;;;114.15;35.15;;;;;;;4.68;100.00;90518.50;4958720;28;20042;-86
2022/03/31 05:28:05;;;;;;;103.28;34.38;;;;;;;4.73;100.00;90525.44;4980467;28;20043;-85
2022/03/31 05:30:31;;;;;;;115.63;33.97;;;;;;;4.68;100.00;90518.50;4990198;28;20515;-86
2022/03/31 05:32:58;;;;;;;111.82;35.42;;;;;;;4.63;100.00;90510.88;4977368;28;20060;-86
2022/03/31 05:35:24;;;;;;;105.25;34.60;;;;;;;4.75;100.00;90524.06;4984873;28;20049;-88
2022/03/31 05:37:50;;;;;;;99.80;33.40;;;;;;;4.77;100.00;90519.34;4981277;28;20117;-85
2022/03/31 05:40:17;;;;;;;111.70;32.85;;;;;;;4.73;99.80;90500.25;4974941;28;20038;-85
2022/03/31 05:42:43;;;;;;;97.20;31.85;;;;;;;4.83;99.44;90514.78;4990475;28;20096;-85
2022/03/31 05:45:12;;;;;;;97.50;34.92;;;;;;;4.85;99.95;90517.09;4991327;28;20037;-86
2022/03/31 05:47:39;;;;;;;103.15;32.47;;;;;;;4.86;99.66;90513.41;4994936;28;20158;-85
2022/03/31 05:50:06;;;;;;;93.63;33.00;;;;;;;4.85;99.94;90512.66;4960904;28;20022;-85
2022/03/31 05:52:32;;;;;;;110.60;32.15;;;;;;;4.92;99.54;90502.63;4974396;28;20049;-85
2022/03/31 05:54:57;;;;;;;92.13;30.90;;;;;;;4.98;98.94;90511.03;4966892;28;20038;-85
2022/03/31 05:57:23;;;;;;;103.15;32.15;;;;;;;4.90;99.05;90494.38;4978212;28;20121;-85
2022/03/31 05:59:48;;;;;;;98.95;31.60;;;;;;;5.01;98.76;90503.41;4959532;28;20039;-87
2022/03/31 06:02:14;;;;;;;96.60;31.60;;;;;;;5.03;98.10;90503.13;4951753;28;20057;-87
2022/03/31 06:04:39;;;;;;;101.35;34.20;;;;;;;4.92;98.58;90497.44;4991870;28;20041;-88
2022/03/31 06:07:07;;;;;;;104.90;31.48;;;;;;;4.89;99.13;90484.31;4993377;28;20046;-86
2022/03/31 06:09:33;;;;;;;100.53;30.70;;;;;;;4.93;98.56;90482.63;4994466;28;20045;-87
2022/03/31 06:11:58;;;;;;;101.30;30.42;;;;;;;5.09;98.61;90499.34;5011777;28;20046;-87
2022/03/31 06:14:24;;;;;;;92.57;31.13;;;;;;;4.99;98.52;90471.06;4967292;28;20491;-86
2022/03/31 06:16:51;;;;;;;94.82;32.22;;;;;;;5.11;98.59;90489.44;4992061;28;20031;-86
2022/03/31 06:19:17;;;;;;;99.43;31.52;;;;;;;5.10;98.38;90477.50;4992549;28;20049;-87
2022/03/31 06:21:43;;;;;;;109.43;31.50;;;;;;;5.26;98.16;90490.81;4991250;28;20467;-85
2022/03/31 06:24:09;;;;;;;93.60;31.92;;;;;;;5.24;98.05;90481.81;5008225;28;20065;-87
2022/03/31 06:26:35;;;;;;;109.00;32.55;;;;;;;5.37;97.70;90486.13;4961281;28;20126;-85
2022/03/31 06:29:01;;;;;;;102.38;31.42;;;;;;;5.41;97.23;90493.00;4979251;28;20042;-86
2022/03/31 06:31:27;;;;;;;98.75;31.42;;;;;;;5.35;97.47;90467.50;4959687;28;20061;-87
2022/03/31 06:33:53;;;;;;;109.07;33.30;;;;;;;5.49;97.58;90475.91;4991654;28;20038;-86
2022/03/31 06:36:19;;;;;;;102.13;32.65;;;;;;;5.50;97.29;90472.25;4975420;28;20043;-85
2022/03/31 06:38:46;;;;;;;104.82;33.38;;;;;;;5.58;97.24;90481.09;4977493;28;20364;-85
2022/03/31 06:41:17;;;;;;;104.88;31.45;;;;;;;5.58;96.98;90458.53;4996904;28;20050;-86
2022/03/31 06:43:46;;;;;;;103.03;32.97;;;;;;;5.58;96.41;90450.75;4992604;28;20054;-87
2022/03/31 06:46:13;;;;;;;97.63;32.30;;;;;;;5.71;97.29;90464.63;4988454;28;20030;-86
2022/03/31 06:48:41;;;;;;;116.10;35.00;;;;;;;5.77;97.43;90463.41;4973828;28;20045;-86
2022/03/31 06:51:08;;;;;;;109.38;34.13;;;;;;;5.71;96.26;90453.50;4964080;28;20089;-87
2022/03/31 06:53:34;;;;;;;82.50;30.58;;;;;;;5.85;96.32;90461.88;4949063;28;20039;-86
2022/03/31 06:55:59;;;;;;;109.72;32.28;;;;;;;5.92;95.54;90464.81;4968547;28;20369;-86
2022/03/31 06:58:27;;;;;;;104.40;33.40;;;;;;;5.80;95.23;90451.66;4977535;28;20041;-86
2022/03/31 07:00:53;;;;;;;99.05;33.17;;;;;;;5.81;93.76;90453.19;4993552;28;20073;-87
2022/03/31 07:03:18;;;;;;;94.30;30.95;;;;;;;5.82;93.68;90457.31;4996512;28;20124;-88
2022/03/31 07:05:44;;;;;;;96.55;31.75;;;;;;;5.82;93.26;90449.50;5026119;28;20403;-87
2022/03/31 07:08:10;;;;;;;111.00;35.13;;;;;;;5.90;94.97;90455.75;5006911;28;20486;-86
2022/03/31 07:10:36;;;;;;;113.68;34.45;;;;;;;5.72;94.98;90439.44;5011061;28;20108;-85
2022/03/31 07:13:01;;;;;;;110.75;34.58;;;;;;;5.96;95.07;90465.72;5001235;28;20041;-85
2022/03/31 07:15:28;;;;;;;113.78;35.70;;;;;;;5.80;94.88;90436.84;4993447;28;20046;-86
2022/03/31 07:17:55;;;;;;;106.82;34.53;;;;;;;5.94;94.30;90456.69;5009726;28;20049;-86
2022/03/31 07:20:24;;;;;;;128.20;35.80;;;;;;;5.80;96.01;90441.28;4994810;28;20045;-86
2022/03/31 07:22:50;;;;;;;110.80;32.85;;;;;;;5.81;95.06;90432.44;4978704;28;20092;-86
2022/03/31 07:25:17;;;;;;;121.28;35.13;;;;;;;5.93;95.48;90455.94;5004155;28;20039;-86
2022/03/31 07:27:44;;;;;;;135.77;36.60;;;;;;;5.89;95.49;90447.22;4976343;28;20038;-86
2022/03/31 07:30:12;;;;;;;121.57;37.55;;;;;;;5.89;95.84;90439.44;5016819;28;20053;-86
2022/03/31 07:32:51;;;;;;;118.50;36.33;;;;;;;6.09;95.00;90447.69;4981236;28;20136;-86
2022/03/31 07:35:18;;;;;;;101.40;33.45;;;;;;;6.17;95.07;90433.91;4997930;28;20084;-88
2022/03/31 07:37:44;;;;;;;101.90;33.13;;;;;;;6.34;92.09;90446.13;4997885;28;20110;-87
2022/03/31 07:40:10;;;;;;;103.47;32.20;;;;;;;6.39;91.64;90431.13;5004112;28;20046;-85
2022/03/31 07:42:35;;;;;;;101.72;32.85;;;;;;;6.59;90.92;90449.72;5013401;28;20060;-87
2022/03/31 07:45:01;;;;;;;98.25;33.40;;;;;;;6.68;90.95;90448.59;5014374;28;20137;-86
2022/03/31 07:47:27;;;;;;;98.05;32.65;;;;;;;6.65;90.15;90431.03;4983812;28;20042;-86
2022/03/31 07:49:53;;;;;;;99.70;32.72;;;;;;;7.03;89.37;90438.06;4997513;28;20340;-86
2022/03/31 07:52:21;;;;;;;95.45;31.98;;;;;;;6.97;86.35;90439.31;5011961;28;20049;-85
2022/03/31 07:54:48;;;;;;;105.35;35.85;;;;;;;7.18;87.81;90417.78;4997288;28;20034;-86
2022/03/31 07:57:14;;;;;;;96.50;31.92;;;;;;;7.51;84.51;90423.09;5011472;28;20380;-86
2022/03/31 07:59:39;;;;;;;92.97;30.75;;;;;;;7.73;83.31;90422.03;5034904;28;20095;-86
2022/03/31 08:02:06;;;;;;;88.85;28.67;;;;;;;7.83;83.68;90431.28;5014817;28;20502;-85
2022/03/31 08:04:32;;;;;;;99.55;32.78;;;;;;;7.61;86.72;90427.94;5011480;28;20410;-86
2022/03/31 08:06:57;;;;;;;123.22;37.60;;;;;;;7.10;90.74;90406.38;5005552;28;20041;-86
2022/03/31 08:09:23;;;;;;;137.27;35.72;;;;;;;7.60;90.26;90410.78;4991360;28;20076;-85
2022/03/31 08:11:49;;;;;;;94.35;32.40;;;;;;;7.99;87.17;90421.03;4978578;28;20042;-86
2022/03/31 08:14:19;;;;;;;116.15;35.53;;;;;;;7.85;86.18;90413.50;5015601;28;20060;-85
2022/03/31 08:16:48;;;;;;;125.22;37.05;;;;;;;7.65;87.96;90405.38;4993997;28;20046;-86
2022/03/31 08:19:15;;;;;;;124.80;36.60;;;;;;;7.67;86.52;90408.44;4995103;28;20408;-86
2022/03/31 08:21:42;;;;;;;122.25;35.72;;;;;;;8.00;86.73;90414.78;4978741;28;20084;-86
2022/03/31 08:24:09;;;;;;;106.15;35.38;;;;;;;8.05;83.35;90414.56;5012809;28;20102;-86
2022/03/31 08:26:35;;;;;;;111.00;34.35;;;;;;;7.86;84.39;90391.59;5013368;28;20034;-86
2022/03/31 08:29:01;;;;;;;149.75;37.53;;;;;;;7.63;88.88;90417.97;4985421;28;20046;-86
2022/03/31 08:31:27;;;;;;;114.10;36.83;;;;;;;7.18;91.41;90392.56;5009835;28;20034;-86
2022/03/31 08:33:53;;;;;;;117.93;38.08;;;;;;;7.60;88.99;90397.75;4994041;28;20029;-86
2022/03/31 08:36:19;;;;;;;108.53;32.20;;;;;;;7.78;88.03;90408.06;5012353;28;20100;-87
2022/03/31 08:38:44;;;;;;;117.93;38.75;;;;;;;7.86;87.43;90404.63;4996778;28;20061;-86
2022/03/31 08:41:12;;;;;;;113.50;36.05;;;;;;;7.90;86.77;90410.69;4996931;28;20042;-86
2022/03/31 08:43:42;;;;;;;103.78;34.65;;;;;;;7.61;86.47;90383.69;5000357;28;20074;-89
2022/03/31 08:46:10;;;;;;;118.28;35.92;;;;;;;7.60;87.37;90389.94;4973741;28;20081;-87
2022/03/31 08:48:37;;;;;;;122.53;36.40;;;;;;;7.39;88.13;90392.56;4996983;28;20046;-87
2022/03/31 08:51:04;;;;;;;105.15;35.22;;;;;;;7.16;90.63;90405.13;5012422;28;20109;-87
2022/03/31 08:53:31;;;;;;;132.90;38.20;;;;;;;7.42;87.92;90385.97;4995429;28;20089;-85
2022/03/31 08:55:56;;;;;;;94.97;31.30;;;;;;;7.74;85.46;90407.91;4999351;28;20036;-86
2022/03/31 08:58:22;;;;;;;111.40;31.13;;;;;;;7.52;86.39;90406.41;5013014;28;20042;-86
2022/03/31 09:00:48;;;;;;;126.45;36.85;;;;;;;7.88;87.77;90399.84;5013969;28;20061;-86
2022/03/31 09:03:13;;;;;;;126.63;36.03;;;;;;;7.78;87.89;90402.84;5012737;28;20403;-87
2022/03/31 09:05:49;;;;;;;116.90;34.53;;;;;;;7.60;85.25;90405.56;5013281;28;20033;-89
2022/03/31 09:08:16;;;;;;;118.45;36.30;;;;;;;7.36;87.14;90382.00;5000225;28;20395;-86
2022/03/31 09:10:47;;;;;;;113.25;37.42;;;;;;;7.69;87.47;90400.31;5025916;28;20080;-86
2022/03/31 09:13:30;;;;;;;115.40;35.95;;;;;;;7.97;86.52;90400.53;5014431;28;20125;-86
2022/03/31 09:16:01;;;;;;;100.07;34.50;;;;;;;8.06;84.40;90401.22;5030983;28;20034;-86
2022/03/31 09:18:28;;;;;;;112.50;35.20;;;;;;;8.27;84.80;90395.19;4980331;28;20042;-86
2022/03/31 09:20:57;;;;;;;102.25;33.58;;;;;;;8.49;82.16;90394.84;5013783;28;20034;-86
2022/03/31 09:23:28;;;;;;;100.88;33.85;;;;;;;8.12;83.47;90391.34;4996712;28;20038;-87
2022/03/31 09:26:05;;;;;;;113.25;34.17;;;;;;;8.24;82.82;90361.94;5013568;28;20026;-87
2022/03/31 09:28:31;;;;;;;106.43;33.75;;;;;;;8.34;81.86;90377.19;5014212;28;20384;-86
2022/03/31 09:30:57;;;;;;;115.50;36.95;;;;;;;8.79;82.90;90386.06;4964525;28;20034;-86
2022/03/31 09:33:29;;;;;;;106.03;33.53;;;;;;;8.42;82.43;90392.00;5012689;28;20088;-86
2022/03/31 09:36:14;;;;;;;100.93;31.40;;;;;;;8.29;83.45;90385.22;5014368;28;20089;-86
2022/03/31 09:38:45;;;;;;;111.70;34.83;;;;;;;9.06;79.68;90361.16;4999868;28;20407;-86
2022/03/31 09:41:34;;;;;;;94.13;30.63;;;;;;;9.33;78.44;90378.75;5033381;28;20068;-86
2022/03/31 09:44:04;;;;;;;98.57;32.47;;;;;;;9.05;78.54;90377.91;5032841;28;20029;-87
2022/03/31 09:46:33;;;;;;;79.53;26.95;;;;;;;9.60;77.24;90358.22;4997756;28;20029;-88
2022/03/31 09:49:09;;;;;;;84.28;30.27;;;;;;;9.38;79.41;90365.44;5008150;28;20179;-86
2022/03/31 09:51:34;;;;;;;92.05;31.10;;;;;;;9.36;79.74;90367.63;4996657;28;20735;-86
2022/03/31 09:54:00;;;;;;;70.25;23.15;;;;;;;8.63;80.21;90368.44;4995600;28;20088;-86
2022/03/31 09:56:26;;;;;;;93.45;30.98;;;;;;;9.17;79.35;90370.06;4995269;28;20049;-86
2022/03/31 09:58:54;;;;;;;85.15;30.60;;;;;;;8.88;80.49;90356.16;5014085;28;20041;-87
2022/03/31 10:01:20;;;;;;;80.53;28.83;;;;;;;9.52;78.37;90353.88;4998876;28;20132;-86
2022/03/31 10:03:45;;;;;;;76.65;29.70;;;;;;;9.82;75.57;90350.97;4999043;28;20065;-88
2022/03/31 10:06:12;;;;;;;74.82;26.42;;;;;;;9.40;76.74;90340.88;5015162;28;20075;-87
2022/03/31 10:08:42;;;;;;;67.80;24.60;;;;;;;8.95;77.90;90353.00;5015259;28;20037;-86
2022/03/31 10:11:10;;;;;;;73.22;27.10;;;;;;;8.95;77.11;90348.56;4999006;28;20057;-86
2022/03/31 10:13:50;;;;;;;66.32;25.33;;;;;;;9.01;76.91;90362.16;5015127;28;20029;-86
2022/03/31 10:16:26;;;;;;;78.70;28.45;;;;;;;8.38;77.90;90349.38;4998982;28;20041;-86
2022/03/31 10:18:52;;;;;;;66.80;25.00;;;;;;;8.36;78.50;90335.91;5015165;28;20040;-86
2022/03/31 10:21:28;;;;;;;56.13;20.08;;;;;;;8.19;79.28;90333.50;4967070;28;20033;-86
2022/03/31 10:26:40;;;;;;;60.67;23.35;;;;;;;8.46;78.71;90347.78;5018019;28;20045;-87
2022/03/31 10:29:16;;;;;;;66.53;24.13;;;;;;;8.92;77.36;90344.00;5014732;28;20041;-87
2022/03/31 10:31:46;;;;;;;68.60;24.75;;;;;;;8.80;77.54;90336.16;4981343;28;20057;-86
2022/03/31 10:34:14;;;;;;;70.30;24.50;;;;;;;8.91;76.67;90349.53;5011517;28;20508;-86
2022/03/31 10:36:48;;;;;;;63.92;25.42;;;;;;;8.67;77.12;90334.63;5015147;28;20084;-87
2022/03/31 10:39:19;;;;;;;61.60;23.95;;;;;;;9.06;75.55;90333.22;5033007;28;20080;-86
2022/03/31 10:41:46;;;;;;;86.40;24.20;;;;;;;8.91;75.40;90298.09;5015391;28;20048;-87
2022/03/31 10:44:11;;;;;;;56.65;22.90;;;;;;;9.11;74.81;90319.19;4992499;28;20037;-86
2022/03/31 10:46:38;;;;;;;49.72;19.38;;;;;;;8.75;74.33;90302.47;5006688;28;20395;-86
2022/03/31 10:49:10;;;;;;;59.78;22.85;;;;;;;9.23;74.28;90313.94;5014878;28;20038;-86
2022/03/31 10:51:41;;;;;;;67.43;22.40;;;;;;;9.56;73.38;90313.72;5015483;28;20087;-86
2022/03/31 10:54:12;;;;;;;61.00;21.00;;;;;;;9.32;72.31;90309.34;5031874;28;20157;-86
2022/03/31 10:56:40;;;;;;;68.05;24.73;;;;;;;9.45;73.35;90304.09;4981937;28;20076;-86
2022/03/31 10:59:07;;;;;;;63.05;23.95;;;;;;;9.57;73.08;90302.19;5031442;28;20490;-86
2022/03/31 11:01:36;;;;;;;50.38;21.13;;;;;;;9.32;74.55;90300.75;5017502;28;20136;-87
2022/03/31 11:04:08;;;;;;;55.38;20.55;;;;;;;9.37;72.28;90296.06;5034894;28;20038;-86
2022/03/31 11:06:55;;;;;;;55.95;23.25;;;;;;;9.68;72.58;90299.09;5013972;28;20120;-86
2022/03/31 11:09:27;;;;;;;56.80;20.70;;;;;;;9.66;71.16;90296.84;4982582;28;20046;-86
2022/03/31 11:11:55;;;;;;;57.22;22.38;;;;;;;9.71;71.92;90270.47;4998650;28;20045;-87
2022/03/31 11:14:22;;;;;;;57.28;22.38;;;;;;;9.88;71.89;90271.25;5018589;28;20034;-88
2022/03/31 11:16:48;;;;;;;57.03;22.40;;;;;;;10.09;70.15;90281.50;4986387;28;20033;-87
2022/03/31 11:19:19;;;;;;;51.30;21.17;;;;;;;10.05;69.86;90254.50;5001892;28;20048;-88
2022/03/31 11:21:44;;;;;;;53.10;20.85;;;;;;;9.96;70.40;90262.50;5002701;28;20040;-87
2022/03/31 11:24:11;;;;;;;53.70;21.15;;;;;;;10.27;70.54;90267.00;5002343;28;20033;-87
2022/03/31 11:26:44;;;;;;;51.40;20.50;;;;;;;10.83;69.45;90266.03;5002511;28;20099;-87
2022/03/31 11:29:19;;;;;;;69.97;21.42;;;;;;;10.99;67.97;90263.38;5018526;28;20334;-88
2022/03/31 11:31:49;;;;;;;58.15;21.50;;;;;;;10.92;69.72;90264.00;5018462;28;20034;-87
2022/03/31 11:34:27;;;;;;;113.18;22.60;;;;;;;11.70;65.03;90264.03;5018293;28;20145;-88
2022/03/31 11:36:54;;;;;;;69.00;21.65;;;;;;;11.42;66.72;90262.38;5001859;28;20046;-88
2022/03/31 11:39:24;;;;;;;61.95;21.65;;;;;;;11.26;65.55;90259.06;5002176;28;20025;-88
2022/03/31 11:41:50;;;;;;;46.85;19.85;;;;;;;10.84;66.30;90255.22;5018372;28;20037;-87
2022/03/31 11:44:15;;;;;;;46.30;19.42;;;;;;;11.24;67.23;90248.94;5018211;28;20545;-88
2022/03/31 11:46:47;;;;;;;47.88;19.00;;;;;;;11.07;66.55;90235.47;5002216;28;20668;-88
2022/03/31 11:49:17;;;;;;;48.95;19.15;;;;;;;11.14;66.48;90240.84;4997366;28;20084;-87
2022/03/31 11:51:53;;;;;;;44.10;18.95;;;;;;;10.20;67.61;90236.19;5001781;28;20041;-88
2022/03/31 11:54:20;;;;;;;51.17;19.95;;;;;;;10.39;68.55;90234.78;5035714;28;20493;-88
2022/03/31 11:56:46;;;;;;;53.20;19.52;;;;;;;11.02;68.35;90237.25;5035074;28;20044;-88
2022/03/31 11:59:14;;;;;;;47.13;20.33;;;;;;;11.30;65.47;90241.53;5001460;28;20041;-88
2022/03/31 12:01:47;;;;;;;56.80;20.92;;;;;;;10.72;67.77;90233.66;5017424;28;20049;-88
2022/03/31 12:04:21;;;;;;;58.35;19.88;;;;;;;10.84;66.53;90230.91;5017649;28;20120;-87
2022/03/31 12:06:52;;;;;;;54.05;21.25;;;;;;;10.80;65.46;90209.88;5017999;28;20494;-88
2022/03/31 12:09:18;;;;;;;37.00;16.17;;;;;;;11.20;65.16;90226.41;5001372;28;20044;-87
2022/03/31 12:11:46;;;;;;;50.60;19.90;;;;;;;11.68;61.92;90203.34;5000293;28;20044;-88
2022/03/31 12:14:15;;;;;;;48.08;18.50;;;;;;;11.36;64.02;90206.13;5017065;28;20494;-88
2022/03/31 12:16:50;;;;;;;48.15;20.27;;;;;;;11.61;64.17;90166.53;5018241;28;20041;-89
2022/03/31 12:19:19;;;;;;;57.90;21.27;;;;;;;11.32;63.73;90188.81;4997203;28;20034;-86
2022/03/31 12:21:48;;;;;;;48.13;19.05;;;;;;;11.56;62.82;90156.34;4997949;28;20041;-88
2022/03/31 12:24:14;;;;;;;42.40;18.02;;;;;;;10.61;62.54;90155.69;5013900;28;20041;-90
2022/03/31 12:27:11;;;;;;;50.35;20.75;;;;;;;11.24;64.42;90216.75;4998079;28;20078;-88
2022/03/31 12:29:45;;;;;;;51.08;20.38;;;;;;;10.87;63.73;90166.66;4994106;28;20131;-88
2022/03/31 12:32:16;;;;;;;51.67;18.90;;;;;;;10.56;64.32;90152.56;4998129;28;20491;-88
2022/03/31 12:34:59;;;;;;;34.30;12.63;;;;;;;10.88;64.11;90200.34;4997924;28;20442;-87
2022/03/31 12:37:30;;;;;;;50.40;19.83;;;;;;;11.46;63.68;90182.00;5014461;28;20038;-87